sensor_id;sensor_type;location;lat;lon;timestamp;temperature;humidity
19878;DHT22;10101;52.204;9.910;2024-02-14T00:00:14;6.50;1.00
19878;DHT22;10101;52.204;9.910;2024-02-14T00:02:41;6.60;1.00
19878;DHT22;10101;52.204;9.910;2024-02-14T00:05:10;6.50;1.00
19878;DHT22;10101;52.204;9.910;2024-02-14T00:07:37;6.50;1.00
19878;DHT22;10101;52.204;9.910;2024-02-14T00:10:07;6.50;1.00
19878;DHT22;10101;52.204;9.910;2024-02-14T00:12:34;6.40;1.00
19878;DHT22;10101;52.204;9.910;2024-02-14T00:15:01;6.40;1.00
19878;DHT22;10101;52.204;9.910;2024-02-14T00:17:29;6.40;1.00
19878;DHT22;10101;52.204;9.910;2024-02-14T00:19:56;6.40;1.00
19878;DHT22;10101;52.204;9.910;2024-02-14T00:22:23;6.30;1.00
19878;DHT22;10101;52.204;9.910;2024-02-14T00:24:50;6.30;1.00
19878;DHT22;10101;52.204;9.910;2024-02-14T00:27:18;6.30;42.10
19878;DHT22;10101;52.204;9.910;2024-02-14T00:29:45;6.30;80.70
19878;DHT22;10101;52.204;9.910;2024-02-14T00:32:12;6.20;88.90
19878;DHT22;10101;52.204;9.910;2024-02-14T00:34:39;6.20;46.40
19878;DHT22;10101;52.204;9.910;2024-02-14T00:37:06;6.10;1.00
19878;DHT22;10101;52.204;9.910;2024-02-14T00:39:33;6.10;1.00
19878;DHT22;10101;52.204;9.910;2024-02-14T00:41:59;6.20;1.00
19878;DHT22;10101;52.204;9.910;2024-02-14T00:44:27;6.30;66.60
19878;DHT22;10101;52.204;9.910;2024-02-14T00:46:56;6.30;57.70
19878;DHT22;10101;52.204;9.910;2024-02-14T00:49:24;6.20;59.60
19878;DHT22;10101;52.204;9.910;2024-02-14T00:51:51;6.20;1.00
19878;DHT22;10101;52.204;9.910;2024-02-14T00:54:18;6.20;1.00
19878;DHT22;10101;52.204;9.910;2024-02-14T00:56:44;6.20;1.00
19878;DHT22;10101;52.204;9.910;2024-02-14T00:59:11;6.20;1.00
19878;DHT22;10101;52.204;9.910;2024-02-14T01:01:39;6.20;99.90
19878;DHT22;10101;52.204;9.910;2024-02-14T01:04:06;6.20;99.90
19878;DHT22;10101;52.204;9.910;2024-02-14T01:06:33;6.10;99.90
19878;DHT22;10101;52.204;9.910;2024-02-14T01:09:00;6.20;99.90
19878;DHT22;10101;52.204;9.910;2024-02-14T01:11:27;6.20;99.90
19878;DHT22;10101;52.204;9.910;2024-02-14T01:13:54;6.20;99.90
19878;DHT22;10101;52.204;9.910;2024-02-14T01:16:20;6.20;99.90
19878;DHT22;10101;52.204;9.910;2024-02-14T01:18:49;6.30;99.90
19878;DHT22;10101;52.204;9.910;2024-02-14T01:21:15;6.30;99.90
19878;DHT22;10101;52.204;9.910;2024-02-14T01:23:42;6.30;99.90
19878;DHT22;10101;52.204;9.910;2024-02-14T01:26:09;6.30;99.90
19878;DHT22;10101;52.204;9.910;2024-02-14T01:28:35;6.30;99.90
19878;DHT22;10101;52.204;9.910;2024-02-14T01:31:03;6.30;99.90
19878;DHT22;10101;52.204;9.910;2024-02-14T01:33:30;6.40;99.90
19878;DHT22;10101;52.204;9.910;2024-02-14T01:35:58;6.40;99.90
19878;DHT22;10101;52.204;9.910;2024-02-14T01:38:25;6.40;99.90
19878;DHT22;10101;52.204;9.910;2024-02-14T01:40:51;6.30;99.90
19878;DHT22;10101;52.204;9.910;2024-02-14T01:43:19;6.30;99.90
19878;DHT22;10101;52.204;9.910;2024-02-14T01:45:46;6.40;99.90
19878;DHT22;10101;52.204;9.910;2024-02-14T01:48:13;6.40;99.90
19878;DHT22;10101;52.204;9.910;2024-02-14T01:50:44;6.40;99.90
19878;DHT22;10101;52.204;9.910;2024-02-14T01:53:12;6.30;99.90
19878;DHT22;10101;52.204;9.910;2024-02-14T01:55:40;6.40;99.90
19878;DHT22;10101;52.204;9.910;2024-02-14T01:58:07;6.40;99.90
19878;DHT22;10101;52.204;9.910;2024-02-14T02:00:34;6.30;99.90
19878;DHT22;10101;52.204;9.910;2024-02-14T02:03:01;6.30;99.90
19878;DHT22;10101;52.204;9.910;2024-02-14T02:05:28;6.40;99.90
19878;DHT22;10101;52.204;9.910;2024-02-14T02:07:54;6.40;99.90
19878;DHT22;10101;52.204;9.910;2024-02-14T02:10:23;6.40;99.90
19878;DHT22;10101;52.204;9.910;2024-02-14T02:12:51;6.40;99.90
19878;DHT22;10101;52.204;9.910;2024-02-14T02:15:23;6.50;99.90
19878;DHT22;10101;52.204;9.910;2024-02-14T02:17:50;6.50;99.90
19878;DHT22;10101;52.204;9.910;2024-02-14T02:20:18;6.50;99.90
19878;DHT22;10101;52.204;9.910;2024-02-14T02:22:48;6.60;99.90
19878;DHT22;10101;52.204;9.910;2024-02-14T02:25:15;6.60;99.90
19878;DHT22;10101;52.204;9.910;2024-02-14T02:27:42;6.70;99.90
19878;DHT22;10101;52.204;9.910;2024-02-14T02:30:08;6.80;99.90
19878;DHT22;10101;52.204;9.910;2024-02-14T02:32:36;6.80;99.90
19878;DHT22;10101;52.204;9.910;2024-02-14T02:35:03;6.90;99.90
19878;DHT22;10101;52.204;9.910;2024-02-14T02:37:30;6.90;99.90
19878;DHT22;10101;52.204;9.910;2024-02-14T02:39:58;7.00;99.90
19878;DHT22;10101;52.204;9.910;2024-02-14T02:42:25;7.00;99.90
19878;DHT22;10101;52.204;9.910;2024-02-14T02:44:52;7.00;99.90
19878;DHT22;10101;52.204;9.910;2024-02-14T02:47:18;7.10;99.90
19878;DHT22;10101;52.204;9.910;2024-02-14T02:49:45;7.10;99.90
19878;DHT22;10101;52.204;9.910;2024-02-14T02:52:12;7.10;99.90
19878;DHT22;10101;52.204;9.910;2024-02-14T02:54:40;7.10;99.90
19878;DHT22;10101;52.204;9.910;2024-02-14T02:57:10;7.10;99.90
19878;DHT22;10101;52.204;9.910;2024-02-14T02:59:37;7.10;99.90
19878;DHT22;10101;52.204;9.910;2024-02-14T03:02:08;7.00;99.90
19878;DHT22;10101;52.204;9.910;2024-02-14T03:04:37;7.00;99.90
19878;DHT22;10101;52.204;9.910;2024-02-14T03:07:04;7.10;99.90
19878;DHT22;10101;52.204;9.910;2024-02-14T03:09:34;7.00;99.90
19878;DHT22;10101;52.204;9.910;2024-02-14T03:12:01;7.00;99.90
19878;DHT22;10101;52.204;9.910;2024-02-14T03:14:30;7.00;74.30
19878;DHT22;10101;52.204;9.910;2024-02-14T03:16:58;6.90;1.00
19878;DHT22;10101;52.204;9.910;2024-02-14T03:19:25;6.90;1.00
19878;DHT22;10101;52.204;9.910;2024-02-14T03:21:52;6.80;1.00
19878;DHT22;10101;52.204;9.910;2024-02-14T03:24:19;6.80;1.00
19878;DHT22;10101;52.204;9.910;2024-02-14T03:26:46;6.80;1.00
19878;DHT22;10101;52.204;9.910;2024-02-14T03:29:13;6.80;2.30
19878;DHT22;10101;52.204;9.910;2024-02-14T03:31:43;6.80;81.00
19878;DHT22;10101;52.204;9.910;2024-02-14T03:34:10;6.80;99.90
19878;DHT22;10101;52.204;9.910;2024-02-14T03:36:37;6.80;99.90
19878;DHT22;10101;52.204;9.910;2024-02-14T03:39:05;6.90;99.90
19878;DHT22;10101;52.204;9.910;2024-02-14T03:41:33;6.90;99.90
19878;DHT22;10101;52.204;9.910;2024-02-14T03:44:00;6.90;99.90
19878;DHT22;10101;52.204;9.910;2024-02-14T03:46:29;6.90;99.90
19878;DHT22;10101;52.204;9.910;2024-02-14T03:48:57;7.00;1.00
19878;DHT22;10101;52.204;9.910;2024-02-14T03:51:24;7.00;1.00
19878;DHT22;10101;52.204;9.910;2024-02-14T03:53:50;7.00;1.00
19878;DHT22;10101;52.204;9.910;2024-02-14T03:56:17;7.00;1.00
19878;DHT22;10101;52.204;9.910;2024-02-14T03:58:44;7.00;1.00
19878;DHT22;10101;52.204;9.910;2024-02-14T04:01:12;7.10;1.00
19878;DHT22;10101;52.204;9.910;2024-02-14T04:03:39;7.00;1.00
19878;DHT22;10101;52.204;9.910;2024-02-14T04:06:07;7.00;1.00
19878;DHT22;10101;52.204;9.910;2024-02-14T04:08:34;7.00;99.90
19878;DHT22;10101;52.204;9.910;2024-02-14T04:11:01;7.00;99.90
19878;DHT22;10101;52.204;9.910;2024-02-14T04:13:27;7.00;99.90
19878;DHT22;10101;52.204;9.910;2024-02-14T04:15:54;7.00;1.00
19878;DHT22;10101;52.204;9.910;2024-02-14T04:18:21;7.00;1.00
19878;DHT22;10101;52.204;9.910;2024-02-14T04:20:47;7.00;1.00
19878;DHT22;10101;52.204;9.910;2024-02-14T04:23:15;7.00;1.00
19878;DHT22;10101;52.204;9.910;2024-02-14T04:25:42;7.10;1.00
19878;DHT22;10101;52.204;9.910;2024-02-14T04:28:09;7.10;1.00
19878;DHT22;10101;52.204;9.910;2024-02-14T04:30:37;7.10;1.00
19878;DHT22;10101;52.204;9.910;2024-02-14T04:33:04;7.10;1.00
19878;DHT22;10101;52.204;9.910;2024-02-14T04:35:31;7.20;1.00
19878;DHT22;10101;52.204;9.910;2024-02-14T04:37:59;7.20;1.00
19878;DHT22;10101;52.204;9.910;2024-02-14T04:40:27;7.20;1.00
19878;DHT22;10101;52.204;9.910;2024-02-14T04:42:54;7.10;1.00
19878;DHT22;10101;52.204;9.910;2024-02-14T04:45:21;7.20;1.00
19878;DHT22;10101;52.204;9.910;2024-02-14T04:47:48;7.10;78.60
19878;DHT22;10101;52.204;9.910;2024-02-14T04:50:14;7.10;99.90
19878;DHT22;10101;52.204;9.910;2024-02-14T04:52:41;7.10;99.90
19878;DHT22;10101;52.204;9.910;2024-02-14T04:55:08;7.10;1.00
19878;DHT22;10101;52.204;9.910;2024-02-14T04:57:36;7.10;1.00
19878;DHT22;10101;52.204;9.910;2024-02-14T05:00:04;7.10;1.00
19878;DHT22;10101;52.204;9.910;2024-02-14T05:02:31;7.00;19.00
19878;DHT22;10101;52.204;9.910;2024-02-14T05:04:58;7.10;99.90
19878;DHT22;10101;52.204;9.910;2024-02-14T05:07:24;7.10;1.00
19878;DHT22;10101;52.204;9.910;2024-02-14T05:09:51;7.00;1.00
19878;DHT22;10101;52.204;9.910;2024-02-14T05:12:20;7.10;99.90
19878;DHT22;10101;52.204;9.910;2024-02-14T05:14:48;7.10;1.00
19878;DHT22;10101;52.204;9.910;2024-02-14T05:17:15;7.10;33.60
19878;DHT22;10101;52.204;9.910;2024-02-14T05:19:42;7.00;99.90
19878;DHT22;10101;52.204;9.910;2024-02-14T05:22:09;7.10;1.00
19878;DHT22;10101;52.204;9.910;2024-02-14T05:24:36;7.00;1.00
19878;DHT22;10101;52.204;9.910;2024-02-14T05:27:04;7.00;99.90
19878;DHT22;10101;52.204;9.910;2024-02-14T05:29:31;7.10;1.00
19878;DHT22;10101;52.204;9.910;2024-02-14T05:32:00;7.10;1.00
19878;DHT22;10101;52.204;9.910;2024-02-14T05:34:27;7.10;1.00
19878;DHT22;10101;52.204;9.910;2024-02-14T05:36:54;7.10;1.00
19878;DHT22;10101;52.204;9.910;2024-02-14T05:39:21;7.10;1.00
19878;DHT22;10101;52.204;9.910;2024-02-14T05:41:47;7.20;1.00
19878;DHT22;10101;52.204;9.910;2024-02-14T05:44:15;7.20;1.00
19878;DHT22;10101;52.204;9.910;2024-02-14T05:46:42;7.20;1.00
19878;DHT22;10101;52.204;9.910;2024-02-14T05:49:10;7.20;1.00
19878;DHT22;10101;52.204;9.910;2024-02-14T05:51:37;7.20;1.00
19878;DHT22;10101;52.204;9.910;2024-02-14T05:54:04;7.20;1.00
19878;DHT22;10101;52.204;9.910;2024-02-14T05:56:31;7.20;1.00
19878;DHT22;10101;52.204;9.910;2024-02-14T05:58:58;7.20;17.10
19878;DHT22;10101;52.204;9.910;2024-02-14T06:01:24;7.30;1.00
19878;DHT22;10101;52.204;9.910;2024-02-14T06:03:51;7.30;11.00
19878;DHT22;10101;52.204;9.910;2024-02-14T06:06:19;7.30;99.90
19878;DHT22;10101;52.204;9.910;2024-02-14T06:08:46;7.30;99.90
19878;DHT22;10101;52.204;9.910;2024-02-14T06:11:13;7.30;99.90
19878;DHT22;10101;52.204;9.910;2024-02-14T06:13:41;7.30;33.40
19878;DHT22;10101;52.204;9.910;2024-02-14T06:16:08;7.30;99.90
19878;DHT22;10101;52.204;9.910;2024-02-14T06:18:37;7.30;99.90
19878;DHT22;10101;52.204;9.910;2024-02-14T06:21:05;7.30;99.90
19878;DHT22;10101;52.204;9.910;2024-02-14T06:23:33;7.40;99.90
19878;DHT22;10101;52.204;9.910;2024-02-14T06:26:02;7.40;99.90
19878;DHT22;10101;52.204;9.910;2024-02-14T06:28:30;7.40;1.00
19878;DHT22;10101;52.204;9.910;2024-02-14T06:30:56;7.30;1.00
19878;DHT22;10101;52.204;9.910;2024-02-14T06:33:23;7.40;1.00
19878;DHT22;10101;52.204;9.910;2024-02-14T06:35:50;7.40;99.90
19878;DHT22;10101;52.204;9.910;2024-02-14T06:38:17;7.40;99.90
19878;DHT22;10101;52.204;9.910;2024-02-14T06:40:45;7.40;1.00
19878;DHT22;10101;52.204;9.910;2024-02-14T06:43:12;7.30;1.00
19878;DHT22;10101;52.204;9.910;2024-02-14T06:45:38;7.40;99.90
19878;DHT22;10101;52.204;9.910;2024-02-14T06:48:07;7.40;1.00
19878;DHT22;10101;52.204;9.910;2024-02-14T06:50:34;7.40;35.30
19878;DHT22;10101;52.204;9.910;2024-02-14T06:53:01;7.40;1.00
19878;DHT22;10101;52.204;9.910;2024-02-14T06:55:28;7.40;1.00
19878;DHT22;10101;52.204;9.910;2024-02-14T06:57:57;7.40;99.90
19878;DHT22;10101;52.204;9.910;2024-02-14T07:00:24;7.40;1.00
19878;DHT22;10101;52.204;9.910;2024-02-14T07:02:50;7.50;99.90
19878;DHT22;10101;52.204;9.910;2024-02-14T07:05:17;7.50;1.00
19878;DHT22;10101;52.204;9.910;2024-02-14T07:07:44;7.50;11.70
19878;DHT22;10101;52.204;9.910;2024-02-14T07:10:11;7.50;99.90
19878;DHT22;10101;52.204;9.910;2024-02-14T07:12:38;7.50;99.90
19878;DHT22;10101;52.204;9.910;2024-02-14T07:15:06;7.60;99.90
19878;DHT22;10101;52.204;9.910;2024-02-14T07:17:33;7.70;99.90
19878;DHT22;10101;52.204;9.910;2024-02-14T07:20:01;7.70;99.90
19878;DHT22;10101;52.204;9.910;2024-02-14T07:22:27;7.70;99.90
19878;DHT22;10101;52.204;9.910;2024-02-14T07:24:55;7.70;99.90
19878;DHT22;10101;52.204;9.910;2024-02-14T07:27:22;7.70;99.90
19878;DHT22;10101;52.204;9.910;2024-02-14T07:29:50;7.80;99.90
19878;DHT22;10101;52.204;9.910;2024-02-14T07:32:18;7.80;99.90
19878;DHT22;10101;52.204;9.910;2024-02-14T07:34:45;7.80;99.90
19878;DHT22;10101;52.204;9.910;2024-02-14T07:37:11;7.80;99.90
19878;DHT22;10101;52.204;9.910;2024-02-14T07:39:40;7.80;99.90
19878;DHT22;10101;52.204;9.910;2024-02-14T07:42:07;7.80;99.90
19878;DHT22;10101;52.204;9.910;2024-02-14T07:44:33;7.90;99.90
19878;DHT22;10101;52.204;9.910;2024-02-14T07:47:01;8.00;99.90
19878;DHT22;10101;52.204;9.910;2024-02-14T07:49:30;8.00;99.90
19878;DHT22;10101;52.204;9.910;2024-02-14T07:51:57;8.00;99.90
19878;DHT22;10101;52.204;9.910;2024-02-14T07:54:24;7.90;99.90
19878;DHT22;10101;52.204;9.910;2024-02-14T07:56:50;8.00;99.90
19878;DHT22;10101;52.204;9.910;2024-02-14T07:59:17;8.00;99.90
19878;DHT22;10101;52.204;9.910;2024-02-14T08:01:45;8.00;99.90
19878;DHT22;10101;52.204;9.910;2024-02-14T08:04:12;8.00;99.90
19878;DHT22;10101;52.204;9.910;2024-02-14T08:06:40;8.00;99.90
19878;DHT22;10101;52.204;9.910;2024-02-14T08:09:07;8.00;99.90
19878;DHT22;10101;52.204;9.910;2024-02-14T08:11:35;8.00;99.90
19878;DHT22;10101;52.204;9.910;2024-02-14T08:14:02;8.00;99.90
19878;DHT22;10101;52.204;9.910;2024-02-14T08:16:29;8.00;99.90
19878;DHT22;10101;52.204;9.910;2024-02-14T08:18:56;8.00;99.90
19878;DHT22;10101;52.204;9.910;2024-02-14T08:21:24;8.00;99.90
19878;DHT22;10101;52.204;9.910;2024-02-14T08:23:53;8.10;99.90
19878;DHT22;10101;52.204;9.910;2024-02-14T08:26:20;8.10;99.90
19878;DHT22;10101;52.204;9.910;2024-02-14T08:28:47;8.20;99.90
19878;DHT22;10101;52.204;9.910;2024-02-14T08:31:14;8.30;99.90
19878;DHT22;10101;52.204;9.910;2024-02-14T08:33:41;8.30;99.90
19878;DHT22;10101;52.204;9.910;2024-02-14T08:36:08;8.30;99.90
19878;DHT22;10101;52.204;9.910;2024-02-14T08:38:35;8.40;99.90
19878;DHT22;10101;52.204;9.910;2024-02-14T08:41:04;8.40;99.90
19878;DHT22;10101;52.204;9.910;2024-02-14T08:43:31;8.40;99.90
19878;DHT22;10101;52.204;9.910;2024-02-14T08:45:59;8.40;99.90
19878;DHT22;10101;52.204;9.910;2024-02-14T08:48:26;8.50;99.90
19878;DHT22;10101;52.204;9.910;2024-02-14T08:50:54;8.60;99.90
19878;DHT22;10101;52.204;9.910;2024-02-14T08:53:21;8.40;99.90
19878;DHT22;10101;52.204;9.910;2024-02-14T08:55:48;8.50;99.90
19878;DHT22;10101;52.204;9.910;2024-02-14T08:58:16;8.50;99.90
19878;DHT22;10101;52.204;9.910;2024-02-14T09:00:43;8.50;99.90
19878;DHT22;10101;52.204;9.910;2024-02-14T09:03:09;8.60;99.90
19878;DHT22;10101;52.204;9.910;2024-02-14T09:05:36;8.60;99.90
19878;DHT22;10101;52.204;9.910;2024-02-14T09:08:04;8.70;99.90
19878;DHT22;10101;52.204;9.910;2024-02-14T09:10:31;8.70;99.90
19878;DHT22;10101;52.204;9.910;2024-02-14T09:12:58;8.80;99.90
19878;DHT22;10101;52.204;9.910;2024-02-14T09:15:28;8.80;99.90
19878;DHT22;10101;52.204;9.910;2024-02-14T09:17:56;8.80;99.90
19878;DHT22;10101;52.204;9.910;2024-02-14T09:20:25;8.80;99.90
19878;DHT22;10101;52.204;9.910;2024-02-14T09:22:52;8.90;99.90
19878;DHT22;10101;52.204;9.910;2024-02-14T09:25:19;8.90;99.90
19878;DHT22;10101;52.204;9.910;2024-02-14T09:27:48;9.00;99.90
19878;DHT22;10101;52.204;9.910;2024-02-14T09:30:15;9.10;99.90
19878;DHT22;10101;52.204;9.910;2024-02-14T09:32:44;9.10;99.90
19878;DHT22;10101;52.204;9.910;2024-02-14T09:35:11;9.10;99.90
19878;DHT22;10101;52.204;9.910;2024-02-14T09:37:38;9.10;99.90
19878;DHT22;10101;52.204;9.910;2024-02-14T09:40:06;9.10;99.90
19878;DHT22;10101;52.204;9.910;2024-02-14T09:42:38;9.10;99.90
19878;DHT22;10101;52.204;9.910;2024-02-14T09:45:07;9.10;99.90
19878;DHT22;10101;52.204;9.910;2024-02-14T09:47:34;9.20;99.90
19878;DHT22;10101;52.204;9.910;2024-02-14T09:50:04;9.30;99.90
19878;DHT22;10101;52.204;9.910;2024-02-14T09:52:33;9.30;99.90
19878;DHT22;10101;52.204;9.910;2024-02-14T09:55:00;9.40;99.90
19878;DHT22;10101;52.204;9.910;2024-02-14T09:57:29;9.30;99.90
19878;DHT22;10101;52.204;9.910;2024-02-14T09:59:58;9.30;99.90
19878;DHT22;10101;52.204;9.910;2024-02-14T10:02:26;9.30;99.90
19878;DHT22;10101;52.204;9.910;2024-02-14T10:04:53;9.30;99.90
19878;DHT22;10101;52.204;9.910;2024-02-14T10:07:21;9.40;99.90
19878;DHT22;10101;52.204;9.910;2024-02-14T10:09:48;9.40;99.90
19878;DHT22;10101;52.204;9.910;2024-02-14T10:12:14;9.40;99.90
19878;DHT22;10101;52.204;9.910;2024-02-14T10:14:41;9.50;99.90
19878;DHT22;10101;52.204;9.910;2024-02-14T10:17:08;9.50;99.90
19878;DHT22;10101;52.204;9.910;2024-02-14T10:19:35;9.60;99.90
19878;DHT22;10101;52.204;9.910;2024-02-14T10:22:02;9.60;99.90
19878;DHT22;10101;52.204;9.910;2024-02-14T10:24:32;9.50;99.90
19878;DHT22;10101;52.204;9.910;2024-02-14T10:26:59;9.60;99.90
19878;DHT22;10101;52.204;9.910;2024-02-14T10:29:26;9.50;99.90
19878;DHT22;10101;52.204;9.910;2024-02-14T10:31:53;9.50;99.90
19878;DHT22;10101;52.204;9.910;2024-02-14T10:34:24;9.50;99.90
19878;DHT22;10101;52.204;9.910;2024-02-14T10:36:52;9.50;99.90
19878;DHT22;10101;52.204;9.910;2024-02-14T10:39:20;9.60;99.90
19878;DHT22;10101;52.204;9.910;2024-02-14T10:41:49;9.70;99.90
19878;DHT22;10101;52.204;9.910;2024-02-14T10:44:16;9.70;99.90
19878;DHT22;10101;52.204;9.910;2024-02-14T10:46:44;9.70;99.90
19878;DHT22;10101;52.204;9.910;2024-02-14T10:49:14;9.80;99.90
19878;DHT22;10101;52.204;9.910;2024-02-14T10:51:43;9.80;99.90
19878;DHT22;10101;52.204;9.910;2024-02-14T10:54:14;9.90;99.90
19878;DHT22;10101;52.204;9.910;2024-02-14T10:56:45;10.00;99.90
19878;DHT22;10101;52.204;9.910;2024-02-14T10:59:18;10.10;99.90
19878;DHT22;10101;52.204;9.910;2024-02-14T11:01:46;10.00;99.90
19878;DHT22;10101;52.204;9.910;2024-02-14T11:04:13;10.00;99.90
19878;DHT22;10101;52.204;9.910;2024-02-14T11:06:45;10.10;99.90
19878;DHT22;10101;52.204;9.910;2024-02-14T11:09:12;10.10;99.90
19878;DHT22;10101;52.204;9.910;2024-02-14T11:11:41;10.10;99.90
19878;DHT22;10101;52.204;9.910;2024-02-14T11:14:08;10.10;99.90
19878;DHT22;10101;52.204;9.910;2024-02-14T11:16:37;10.10;99.90
19878;DHT22;10101;52.204;9.910;2024-02-14T11:19:07;10.10;99.90
19878;DHT22;10101;52.204;9.910;2024-02-14T11:21:36;10.10;99.90
19878;DHT22;10101;52.204;9.910;2024-02-14T11:24:06;10.10;99.90
19878;DHT22;10101;52.204;9.910;2024-02-14T11:26:45;10.10;99.90
19878;DHT22;10101;52.204;9.910;2024-02-14T11:29:14;10.10;99.90
19878;DHT22;10101;52.204;9.910;2024-02-14T11:31:43;10.20;99.90
19878;DHT22;10101;52.204;9.910;2024-02-14T11:34:11;10.30;99.90
19878;DHT22;10101;52.204;9.910;2024-02-14T11:36:39;10.30;99.90
19878;DHT22;10101;52.204;9.910;2024-02-14T11:39:07;10.30;99.90
19878;DHT22;10101;52.204;9.910;2024-02-14T11:41:34;10.30;99.90
19878;DHT22;10101;52.204;9.910;2024-02-14T11:44:03;10.40;99.90
19878;DHT22;10101;52.204;9.910;2024-02-14T11:46:31;10.40;99.90
19878;DHT22;10101;52.204;9.910;2024-02-14T11:49:00;10.30;99.90
19878;DHT22;10101;52.204;9.910;2024-02-14T11:51:34;10.40;99.90
19878;DHT22;10101;52.204;9.910;2024-02-14T11:54:02;10.40;99.90
19878;DHT22;10101;52.204;9.910;2024-02-14T11:56:30;10.40;99.90
19878;DHT22;10101;52.204;9.910;2024-02-14T11:58:59;10.40;99.90
19878;DHT22;10101;52.204;9.910;2024-02-14T12:01:28;10.30;99.90
19878;DHT22;10101;52.204;9.910;2024-02-14T12:03:56;10.40;99.90
19878;DHT22;10101;52.204;9.910;2024-02-14T12:06:24;10.40;99.90
19878;DHT22;10101;52.204;9.910;2024-02-14T12:08:52;10.60;99.90
19878;DHT22;10101;52.204;9.910;2024-02-14T12:11:19;10.50;99.90
19878;DHT22;10101;52.204;9.910;2024-02-14T12:13:49;10.50;99.90
19878;DHT22;10101;52.204;9.910;2024-02-14T12:16:16;10.50;99.90
19878;DHT22;10101;52.204;9.910;2024-02-14T12:18:46;10.50;99.90
19878;DHT22;10101;52.204;9.910;2024-02-14T12:21:13;10.40;99.90
19878;DHT22;10101;52.204;9.910;2024-02-14T12:23:41;10.40;99.90
19878;DHT22;10101;52.204;9.910;2024-02-14T12:26:08;10.40;99.90
19878;DHT22;10101;52.204;9.910;2024-02-14T12:28:40;10.40;99.90
19878;DHT22;10101;52.204;9.910;2024-02-14T12:31:07;10.50;99.90
19878;DHT22;10101;52.204;9.910;2024-02-14T12:33:33;10.50;99.90
19878;DHT22;10101;52.204;9.910;2024-02-14T12:36:00;10.60;99.90
19878;DHT22;10101;52.204;9.910;2024-02-14T12:38:28;10.50;99.90
19878;DHT22;10101;52.204;9.910;2024-02-14T12:40:56;10.60;99.90
19878;DHT22;10101;52.204;9.910;2024-02-14T12:43:23;10.60;99.90
19878;DHT22;10101;52.204;9.910;2024-02-14T12:45:50;10.60;99.90
19878;DHT22;10101;52.204;9.910;2024-02-14T12:48:24;10.60;99.90
19878;DHT22;10101;52.204;9.910;2024-02-14T12:50:52;10.60;99.90
19878;DHT22;10101;52.204;9.910;2024-02-14T12:53:19;10.70;99.90
19878;DHT22;10101;52.204;9.910;2024-02-14T12:55:46;10.70;99.90
19878;DHT22;10101;52.204;9.910;2024-02-14T12:58:15;10.80;99.90
19878;DHT22;10101;52.204;9.910;2024-02-14T13:00:42;10.70;99.90
19878;DHT22;10101;52.204;9.910;2024-02-14T13:03:10;10.70;99.90
19878;DHT22;10101;52.204;9.910;2024-02-14T13:05:37;10.70;99.90
19878;DHT22;10101;52.204;9.910;2024-02-14T13:08:05;10.70;99.90
19878;DHT22;10101;52.204;9.910;2024-02-14T13:10:32;10.70;99.90
19878;DHT22;10101;52.204;9.910;2024-02-14T13:12:59;10.70;99.90
19878;DHT22;10101;52.204;9.910;2024-02-14T13:15:27;10.70;99.90
19878;DHT22;10101;52.204;9.910;2024-02-14T13:17:54;10.70;99.90
19878;DHT22;10101;52.204;9.910;2024-02-14T13:20:23;10.70;99.90
19878;DHT22;10101;52.204;9.910;2024-02-14T13:22:50;10.70;99.90
19878;DHT22;10101;52.204;9.910;2024-02-14T13:25:17;10.70;99.90
19878;DHT22;10101;52.204;9.910;2024-02-14T13:27:44;10.60;99.90
19878;DHT22;10101;52.204;9.910;2024-02-14T13:30:11;10.60;99.90
19878;DHT22;10101;52.204;9.910;2024-02-14T13:32:39;10.60;99.90
19878;DHT22;10101;52.204;9.910;2024-02-14T13:35:07;10.60;99.90
19878;DHT22;10101;52.204;9.910;2024-02-14T13:37:33;10.60;99.90
19878;DHT22;10101;52.204;9.910;2024-02-14T13:40:00;10.60;99.90
19878;DHT22;10101;52.204;9.910;2024-02-14T13:42:29;10.70;99.90
19878;DHT22;10101;52.204;9.910;2024-02-14T13:44:56;10.70;99.90
19878;DHT22;10101;52.204;9.910;2024-02-14T13:47:23;10.80;99.90
19878;DHT22;10101;52.204;9.910;2024-02-14T13:49:51;10.70;99.90
19878;DHT22;10101;52.204;9.910;2024-02-14T13:52:18;10.80;99.90
19878;DHT22;10101;52.204;9.910;2024-02-14T13:54:45;10.80;99.90
19878;DHT22;10101;52.204;9.910;2024-02-14T13:57:12;10.80;99.90
19878;DHT22;10101;52.204;9.910;2024-02-14T13:59:39;10.80;99.90
19878;DHT22;10101;52.204;9.910;2024-02-14T14:02:05;10.80;99.90
19878;DHT22;10101;52.204;9.910;2024-02-14T14:04:34;10.80;99.90
19878;DHT22;10101;52.204;9.910;2024-02-14T14:07:02;11.00;99.90
19878;DHT22;10101;52.204;9.910;2024-02-14T14:09:29;10.90;99.90
19878;DHT22;10101;52.204;9.910;2024-02-14T14:11:57;11.00;99.90
19878;DHT22;10101;52.204;9.910;2024-02-14T14:14:24;10.80;99.90
19878;DHT22;10101;52.204;9.910;2024-02-14T14:16:52;10.80;99.90
19878;DHT22;10101;52.204;9.910;2024-02-14T14:19:19;10.80;99.90
19878;DHT22;10101;52.204;9.910;2024-02-14T14:21:45;10.70;99.90
19878;DHT22;10101;52.204;9.910;2024-02-14T14:24:13;10.70;99.90
19878;DHT22;10101;52.204;9.910;2024-02-14T14:26:41;10.70;99.90
19878;DHT22;10101;52.204;9.910;2024-02-14T14:29:09;10.70;99.90
19878;DHT22;10101;52.204;9.910;2024-02-14T14:31:36;10.70;99.90
19878;DHT22;10101;52.204;9.910;2024-02-14T14:34:02;10.70;99.90
19878;DHT22;10101;52.204;9.910;2024-02-14T14:36:29;10.70;99.90
19878;DHT22;10101;52.204;9.910;2024-02-14T14:38:56;10.70;99.90
19878;DHT22;10101;52.204;9.910;2024-02-14T14:41:24;10.70;99.90
19878;DHT22;10101;52.204;9.910;2024-02-14T14:43:51;10.70;99.90
19878;DHT22;10101;52.204;9.910;2024-02-14T14:46:18;10.70;99.90
19878;DHT22;10101;52.204;9.910;2024-02-14T14:48:45;10.70;99.90
19878;DHT22;10101;52.204;9.910;2024-02-14T14:51:12;10.70;99.90
19878;DHT22;10101;52.204;9.910;2024-02-14T14:53:38;10.70;99.90
19878;DHT22;10101;52.204;9.910;2024-02-14T14:56:06;10.70;99.90
19878;DHT22;10101;52.204;9.910;2024-02-14T14:58:34;10.70;99.90
19878;DHT22;10101;52.204;9.910;2024-02-14T15:01:01;10.70;99.90
19878;DHT22;10101;52.204;9.910;2024-02-14T15:03:30;10.70;99.90
19878;DHT22;10101;52.204;9.910;2024-02-14T15:05:57;10.70;99.90
19878;DHT22;10101;52.204;9.910;2024-02-14T15:08:24;10.60;99.90
19878;DHT22;10101;52.204;9.910;2024-02-14T15:10:53;10.60;99.90
19878;DHT22;10101;52.204;9.910;2024-02-14T15:13:21;10.60;99.90
19878;DHT22;10101;52.204;9.910;2024-02-14T15:15:49;10.50;99.90
19878;DHT22;10101;52.204;9.910;2024-02-14T15:18:15;10.50;99.90
19878;DHT22;10101;52.204;9.910;2024-02-14T15:20:42;10.50;99.90
19878;DHT22;10101;52.204;9.910;2024-02-14T15:23:09;10.50;99.90
19878;DHT22;10101;52.204;9.910;2024-02-14T15:25:36;10.50;99.90
19878;DHT22;10101;52.204;9.910;2024-02-14T15:28:08;10.50;99.90
19878;DHT22;10101;52.204;9.910;2024-02-14T15:30:38;10.50;99.90
19878;DHT22;10101;52.204;9.910;2024-02-14T15:33:24;10.50;99.90
19878;DHT22;10101;52.204;9.910;2024-02-14T15:35:52;10.50;99.90
19878;DHT22;10101;52.204;9.910;2024-02-14T15:38:20;10.60;99.90
19878;DHT22;10101;52.204;9.910;2024-02-14T15:40:47;10.50;99.90
19878;DHT22;10101;52.204;9.910;2024-02-14T15:43:18;10.50;99.90
19878;DHT22;10101;52.204;9.910;2024-02-14T15:45:45;10.50;99.90